sensor_id;sensor_type;location;lat;lon;timestamp;temperature;humidity
20319;DHT22;10317;47.254;11.314;2023-07-02T00:01:04;17.40;99.90
20319;DHT22;10317;47.254;11.314;2023-07-02T00:03:29;17.40;99.90
20319;DHT22;10317;47.254;11.314;2023-07-02T00:05:55;17.40;99.90
20319;DHT22;10317;47.254;11.314;2023-07-02T00:08:22;17.30;99.90
20319;DHT22;10317;47.254;11.314;2023-07-02T00:10:50;17.30;99.90
20319;DHT22;10317;47.254;11.314;2023-07-02T00:13:15;17.30;99.90
20319;DHT22;10317;47.254;11.314;2023-07-02T00:15:41;17.30;99.90
20319;DHT22;10317;47.254;11.314;2023-07-02T00:18:06;17.30;99.90
20319;DHT22;10317;47.254;11.314;2023-07-02T00:20:33;17.20;99.90
20319;DHT22;10317;47.254;11.314;2023-07-02T00:23:05;17.20;99.90
20319;DHT22;10317;47.254;11.314;2023-07-02T00:25:34;17.20;99.90
20319;DHT22;10317;47.254;11.314;2023-07-02T00:27:59;17.20;99.90
20319;DHT22;10317;47.254;11.314;2023-07-02T00:30:25;17.20;99.90
20319;DHT22;10317;47.254;11.314;2023-07-02T00:32:50;17.20;99.90
20319;DHT22;10317;47.254;11.314;2023-07-02T00:35:16;17.20;99.90
20319;DHT22;10317;47.254;11.314;2023-07-02T00:37:41;17.20;99.90
20319;DHT22;10317;47.254;11.314;2023-07-02T00:40:07;17.20;99.90
20319;DHT22;10317;47.254;11.314;2023-07-02T00:42:33;17.20;99.90
20319;DHT22;10317;47.254;11.314;2023-07-02T00:44:59;17.20;99.90
20319;DHT22;10317;47.254;11.314;2023-07-02T00:47:28;17.20;99.90
20319;DHT22;10317;47.254;11.314;2023-07-02T00:49:53;17.20;99.90
20319;DHT22;10317;47.254;11.314;2023-07-02T00:52:19;17.20;99.90
20319;DHT22;10317;47.254;11.314;2023-07-02T00:54:45;17.20;99.90
20319;DHT22;10317;47.254;11.314;2023-07-02T00:57:11;17.10;99.90
20319;DHT22;10317;47.254;11.314;2023-07-02T00:59:37;17.20;99.90
20319;DHT22;10317;47.254;11.314;2023-07-02T01:02:03;17.20;99.90
20319;DHT22;10317;47.254;11.314;2023-07-02T01:04:30;17.20;99.90
20319;DHT22;10317;47.254;11.314;2023-07-02T01:06:56;17.20;99.90
20319;DHT22;10317;47.254;11.314;2023-07-02T01:09:23;17.10;99.90
20319;DHT22;10317;47.254;11.314;2023-07-02T01:11:53;17.20;99.90
20319;DHT22;10317;47.254;11.314;2023-07-02T01:14:26;17.20;99.90
20319;DHT22;10317;47.254;11.314;2023-07-02T01:16:53;17.20;99.90
20319;DHT22;10317;47.254;11.314;2023-07-02T01:20:05;17.20;99.90
20319;DHT22;10317;47.254;11.314;2023-07-02T01:22:08;17.20;99.90
20319;DHT22;10317;47.254;11.314;2023-07-02T01:24:35;17.10;99.90
20319;DHT22;10317;47.254;11.314;2023-07-02T01:27:01;17.20;99.90
20319;DHT22;10317;47.254;11.314;2023-07-02T01:29:28;17.10;99.90
20319;DHT22;10317;47.254;11.314;2023-07-02T01:31:54;17.10;99.90
20319;DHT22;10317;47.254;11.314;2023-07-02T01:34:21;17.10;99.90
20319;DHT22;10317;47.254;11.314;2023-07-02T01:36:46;17.10;99.90
20319;DHT22;10317;47.254;11.314;2023-07-02T01:39:12;17.10;99.90
20319;DHT22;10317;47.254;11.314;2023-07-02T01:42:23;17.00;99.90
20319;DHT22;10317;47.254;11.314;2023-07-02T01:44:23;17.00;99.90
20319;DHT22;10317;47.254;11.314;2023-07-02T01:46:49;17.00;99.90
20319;DHT22;10317;47.254;11.314;2023-07-02T01:49:15;17.00;99.90
20319;DHT22;10317;47.254;11.314;2023-07-02T01:51:44;17.00;99.90
20319;DHT22;10317;47.254;11.314;2023-07-02T01:54:10;17.00;99.90
20319;DHT22;10317;47.254;11.314;2023-07-02T01:56:36;17.00;99.90
20319;DHT22;10317;47.254;11.314;2023-07-02T01:59:01;17.00;99.90
20319;DHT22;10317;47.254;11.314;2023-07-02T02:01:27;17.00;99.90
20319;DHT22;10317;47.254;11.314;2023-07-02T02:03:53;17.00;99.90
20319;DHT22;10317;47.254;11.314;2023-07-02T02:06:18;17.00;99.90
20319;DHT22;10317;47.254;11.314;2023-07-02T02:08:44;17.00;99.90
20319;DHT22;10317;47.254;11.314;2023-07-02T02:11:09;17.00;99.90
20319;DHT22;10317;47.254;11.314;2023-07-02T02:13:35;17.00;99.90
20319;DHT22;10317;47.254;11.314;2023-07-02T02:16:00;17.00;99.90
20319;DHT22;10317;47.254;11.314;2023-07-02T02:18:26;17.00;99.90
20319;DHT22;10317;47.254;11.314;2023-07-02T02:20:51;17.00;99.90
20319;DHT22;10317;47.254;11.314;2023-07-02T02:23:17;17.00;99.90
20319;DHT22;10317;47.254;11.314;2023-07-02T02:25:42;16.90;99.90
20319;DHT22;10317;47.254;11.314;2023-07-02T02:28:08;16.90;99.90
20319;DHT22;10317;47.254;11.314;2023-07-02T02:30:33;16.90;99.90
20319;DHT22;10317;47.254;11.314;2023-07-02T02:32:59;16.90;99.90
20319;DHT22;10317;47.254;11.314;2023-07-02T02:35:24;17.00;99.90
20319;DHT22;10317;47.254;11.314;2023-07-02T02:37:50;16.90;99.90
20319;DHT22;10317;47.254;11.314;2023-07-02T02:40:16;16.90;99.90
20319;DHT22;10317;47.254;11.314;2023-07-02T02:42:41;17.00;99.90
20319;DHT22;10317;47.254;11.314;2023-07-02T02:45:07;16.90;99.90
20319;DHT22;10317;47.254;11.314;2023-07-02T02:47:32;16.90;99.90
20319;DHT22;10317;47.254;11.314;2023-07-02T02:49:58;16.90;99.90
20319;DHT22;10317;47.254;11.314;2023-07-02T02:52:24;16.90;99.90
20319;DHT22;10317;47.254;11.314;2023-07-02T02:54:50;16.90;99.90
20319;DHT22;10317;47.254;11.314;2023-07-02T02:57:18;16.90;99.90
20319;DHT22;10317;47.254;11.314;2023-07-02T02:59:43;16.90;99.90
20319;DHT22;10317;47.254;11.314;2023-07-02T03:02:09;16.80;99.90
20319;DHT22;10317;47.254;11.314;2023-07-02T03:04:34;16.80;99.90
20319;DHT22;10317;47.254;11.314;2023-07-02T03:07:00;16.80;99.90
20319;DHT22;10317;47.254;11.314;2023-07-02T03:09:25;16.80;99.90
20319;DHT22;10317;47.254;11.314;2023-07-02T03:11:51;16.80;99.90
20319;DHT22;10317;47.254;11.314;2023-07-02T03:14:16;16.80;99.90
20319;DHT22;10317;47.254;11.314;2023-07-02T03:16:42;16.80;99.90
20319;DHT22;10317;47.254;11.314;2023-07-02T03:19:08;16.80;99.90
20319;DHT22;10317;47.254;11.314;2023-07-02T03:21:33;16.80;99.90
20319;DHT22;10317;47.254;11.314;2023-07-02T03:23:59;16.80;99.90
20319;DHT22;10317;47.254;11.314;2023-07-02T03:26:25;16.80;99.90
20319;DHT22;10317;47.254;11.314;2023-07-02T03:28:50;16.80;99.90
20319;DHT22;10317;47.254;11.314;2023-07-02T03:31:16;16.80;99.90
20319;DHT22;10317;47.254;11.314;2023-07-02T03:33:41;16.70;99.90
20319;DHT22;10317;47.254;11.314;2023-07-02T03:36:07;16.70;99.90
20319;DHT22;10317;47.254;11.314;2023-07-02T03:38:32;16.70;99.90
20319;DHT22;10317;47.254;11.314;2023-07-02T03:40:58;16.70;99.90
20319;DHT22;10317;47.254;11.314;2023-07-02T03:43:23;16.70;99.90
20319;DHT22;10317;47.254;11.314;2023-07-02T03:45:51;16.70;99.90
20319;DHT22;10317;47.254;11.314;2023-07-02T03:48:17;16.70;99.90
20319;DHT22;10317;47.254;11.314;2023-07-02T03:50:42;16.80;99.90
20319;DHT22;10317;47.254;11.314;2023-07-02T03:53:08;16.70;99.90
20319;DHT22;10317;47.254;11.314;2023-07-02T03:55:33;16.70;99.90
20319;DHT22;10317;47.254;11.314;2023-07-02T03:57:59;16.70;99.90
20319;DHT22;10317;47.254;11.314;2023-07-02T04:00:24;16.80;99.90
20319;DHT22;10317;47.254;11.314;2023-07-02T04:02:50;16.80;99.90
20319;DHT22;10317;47.254;11.314;2023-07-02T04:05:16;16.80;99.90
20319;DHT22;10317;47.254;11.314;2023-07-02T04:07:41;16.80;99.90
20319;DHT22;10317;47.254;11.314;2023-07-02T04:10:07;16.80;99.90
20319;DHT22;10317;47.254;11.314;2023-07-02T04:12:33;16.80;99.90
20319;DHT22;10317;47.254;11.314;2023-07-02T04:14:58;16.80;99.90
20319;DHT22;10317;47.254;11.314;2023-07-02T04:17:24;16.80;99.90
20319;DHT22;10317;47.254;11.314;2023-07-02T04:19:49;16.80;99.90
20319;DHT22;10317;47.254;11.314;2023-07-02T04:22:15;16.80;99.90
20319;DHT22;10317;47.254;11.314;2023-07-02T04:24:41;16.80;99.90
20319;DHT22;10317;47.254;11.314;2023-07-02T04:27:06;16.90;99.90
20319;DHT22;10317;47.254;11.314;2023-07-02T04:29:32;16.90;99.90
20319;DHT22;10317;47.254;11.314;2023-07-02T04:31:57;16.90;99.90
20319;DHT22;10317;47.254;11.314;2023-07-02T04:34:23;16.90;99.90
20319;DHT22;10317;47.254;11.314;2023-07-02T04:36:49;16.90;99.90
20319;DHT22;10317;47.254;11.314;2023-07-02T04:39:14;17.00;99.90
20319;DHT22;10317;47.254;11.314;2023-07-02T04:41:40;17.00;99.90
20319;DHT22;10317;47.254;11.314;2023-07-02T04:44:05;17.00;99.90
20319;DHT22;10317;47.254;11.314;2023-07-02T04:46:31;17.00;99.90
20319;DHT22;10317;47.254;11.314;2023-07-02T04:48:56;17.10;99.90
20319;DHT22;10317;47.254;11.314;2023-07-02T04:51:22;17.10;99.90
20319;DHT22;10317;47.254;11.314;2023-07-02T04:53:47;17.10;99.90
20319;DHT22;10317;47.254;11.314;2023-07-02T04:56:13;17.10;99.90
20319;DHT22;10317;47.254;11.314;2023-07-02T04:58:38;17.10;99.90
20319;DHT22;10317;47.254;11.314;2023-07-02T05:01:04;17.10;99.90
20319;DHT22;10317;47.254;11.314;2023-07-02T05:03:30;17.10;99.90
20319;DHT22;10317;47.254;11.314;2023-07-02T05:05:55;17.10;99.90
20319;DHT22;10317;47.254;11.314;2023-07-02T05:08:21;17.10;99.90
20319;DHT22;10317;47.254;11.314;2023-07-02T05:10:47;17.20;99.90
20319;DHT22;10317;47.254;11.314;2023-07-02T05:13:12;17.20;99.90
20319;DHT22;10317;47.254;11.314;2023-07-02T05:15:38;17.20;99.90
20319;DHT22;10317;47.254;11.314;2023-07-02T05:18:03;17.20;99.90
20319;DHT22;10317;47.254;11.314;2023-07-02T05:20:29;17.20;99.90
20319;DHT22;10317;47.254;11.314;2023-07-02T05:22:54;17.20;99.90
20319;DHT22;10317;47.254;11.314;2023-07-02T05:25:20;17.20;99.90
20319;DHT22;10317;47.254;11.314;2023-07-02T05:27:45;17.20;99.90
20319;DHT22;10317;47.254;11.314;2023-07-02T05:30:11;17.20;99.90
20319;DHT22;10317;47.254;11.314;2023-07-02T05:32:37;17.20;99.90
20319;DHT22;10317;47.254;11.314;2023-07-02T05:35:04;17.20;99.90
20319;DHT22;10317;47.254;11.314;2023-07-02T05:37:30;17.10;99.90
20319;DHT22;10317;47.254;11.314;2023-07-02T05:39:55;17.00;99.90
20319;DHT22;10317;47.254;11.314;2023-07-02T05:42:21;17.10;99.90
20319;DHT22;10317;47.254;11.314;2023-07-02T05:44:46;17.10;99.90
20319;DHT22;10317;47.254;11.314;2023-07-02T05:47:12;17.10;99.90
20319;DHT22;10317;47.254;11.314;2023-07-02T05:49:37;17.10;99.90
20319;DHT22;10317;47.254;11.314;2023-07-02T05:52:03;17.10;99.90
20319;DHT22;10317;47.254;11.314;2023-07-02T05:54:29;17.20;99.90
20319;DHT22;10317;47.254;11.314;2023-07-02T05:56:54;17.10;99.90
20319;DHT22;10317;47.254;11.314;2023-07-02T05:59:20;17.20;99.90
20319;DHT22;10317;47.254;11.314;2023-07-02T06:01:45;17.20;99.90
20319;DHT22;10317;47.254;11.314;2023-07-02T06:04:11;17.30;99.90
20319;DHT22;10317;47.254;11.314;2023-07-02T06:06:36;17.30;99.90
20319;DHT22;10317;47.254;11.314;2023-07-02T06:09:02;17.30;99.90
20319;DHT22;10317;47.254;11.314;2023-07-02T06:11:29;17.40;99.90
20319;DHT22;10317;47.254;11.314;2023-07-02T06:13:54;17.50;99.90
20319;DHT22;10317;47.254;11.314;2023-07-02T06:16:20;17.60;99.90
20319;DHT22;10317;47.254;11.314;2023-07-02T06:18:46;17.80;99.90
20319;DHT22;10317;47.254;11.314;2023-07-02T06:21:11;18.00;99.90
20319;DHT22;10317;47.254;11.314;2023-07-02T06:23:40;18.10;99.90
20319;DHT22;10317;47.254;11.314;2023-07-02T06:26:06;18.20;99.90
20319;DHT22;10317;47.254;11.314;2023-07-02T06:28:32;18.20;99.90
20319;DHT22;10317;47.254;11.314;2023-07-02T06:30:57;18.10;99.90
20319;DHT22;10317;47.254;11.314;2023-07-02T06:33:23;18.20;99.90
20319;DHT22;10317;47.254;11.314;2023-07-02T06:35:49;18.20;99.90
20319;DHT22;10317;47.254;11.314;2023-07-02T06:38:14;18.20;99.90
20319;DHT22;10317;47.254;11.314;2023-07-02T06:40:40;18.30;99.90
20319;DHT22;10317;47.254;11.314;2023-07-02T06:43:05;18.40;99.90
20319;DHT22;10317;47.254;11.314;2023-07-02T06:45:31;18.30;99.90
20319;DHT22;10317;47.254;11.314;2023-07-02T06:47:56;18.40;99.90
20319;DHT22;10317;47.254;11.314;2023-07-02T06:50:22;18.50;99.90
20319;DHT22;10317;47.254;11.314;2023-07-02T06:52:48;18.60;99.90
20319;DHT22;10317;47.254;11.314;2023-07-02T06:55:13;18.60;99.90
20319;DHT22;10317;47.254;11.314;2023-07-02T06:57:42;18.60;99.90
20319;DHT22;10317;47.254;11.314;2023-07-02T07:00:11;18.70;99.90
20319;DHT22;10317;47.254;11.314;2023-07-02T07:02:37;18.80;99.90
20319;DHT22;10317;47.254;11.314;2023-07-02T07:05:03;18.80;99.90
20319;DHT22;10317;47.254;11.314;2023-07-02T07:07:29;19.00;99.90
20319;DHT22;10317;47.254;11.314;2023-07-02T07:09:55;19.10;99.90
20319;DHT22;10317;47.254;11.314;2023-07-02T07:12:20;19.20;99.90
20319;DHT22;10317;47.254;11.314;2023-07-02T07:14:46;19.10;99.90
20319;DHT22;10317;47.254;11.314;2023-07-02T07:17:11;19.30;99.90
20319;DHT22;10317;47.254;11.314;2023-07-02T07:19:37;19.50;99.90
20319;DHT22;10317;47.254;11.314;2023-07-02T07:22:03;19.70;99.90
20319;DHT22;10317;47.254;11.314;2023-07-02T07:24:28;19.90;99.90
20319;DHT22;10317;47.254;11.314;2023-07-02T07:26:54;20.00;99.90
20319;DHT22;10317;47.254;11.314;2023-07-02T07:29:19;20.00;99.90
20319;DHT22;10317;47.254;11.314;2023-07-02T07:31:45;20.30;99.90
20319;DHT22;10317;47.254;11.314;2023-07-02T07:34:11;20.50;99.90
20319;DHT22;10317;47.254;11.314;2023-07-02T07:36:37;20.70;99.90
20319;DHT22;10317;47.254;11.314;2023-07-02T07:39:02;20.60;99.90
20319;DHT22;10317;47.254;11.314;2023-07-02T07:41:28;20.60;99.90
20319;DHT22;10317;47.254;11.314;2023-07-02T07:43:54;20.90;99.90
20319;DHT22;10317;47.254;11.314;2023-07-02T07:46:19;21.20;99.90
20319;DHT22;10317;47.254;11.314;2023-07-02T07:48:45;22.30;99.90
20319;DHT22;10317;47.254;11.314;2023-07-02T07:51:11;22.90;99.90
20319;DHT22;10317;47.254;11.314;2023-07-02T07:53:39;23.20;99.90
20319;DHT22;10317;47.254;11.314;2023-07-02T07:56:05;22.90;99.90
20319;DHT22;10317;47.254;11.314;2023-07-02T07:58:31;22.70;99.90
20319;DHT22;10317;47.254;11.314;2023-07-02T08:00:57;22.60;99.90
20319;DHT22;10317;47.254;11.314;2023-07-02T08:03:23;22.30;99.90
20319;DHT22;10317;47.254;11.314;2023-07-02T08:05:48;22.10;99.90
20319;DHT22;10317;47.254;11.314;2023-07-02T08:08:14;22.10;99.90
20319;DHT22;10317;47.254;11.314;2023-07-02T08:10:39;21.90;99.90
20319;DHT22;10317;47.254;11.314;2023-07-02T08:13:05;21.70;99.90
20319;DHT22;10317;47.254;11.314;2023-07-02T08:15:31;21.50;99.90
20319;DHT22;10317;47.254;11.314;2023-07-02T08:17:56;21.50;99.90
20319;DHT22;10317;47.254;11.314;2023-07-02T08:20:24;21.70;99.90
20319;DHT22;10317;47.254;11.314;2023-07-02T08:22:49;21.60;99.90
20319;DHT22;10317;47.254;11.314;2023-07-02T08:25:17;21.50;99.90
20319;DHT22;10317;47.254;11.314;2023-07-02T08:27:43;21.30;99.90
20319;DHT22;10317;47.254;11.314;2023-07-02T08:30:09;21.20;99.90
20319;DHT22;10317;47.254;11.314;2023-07-02T08:32:34;21.50;99.90
20319;DHT22;10317;47.254;11.314;2023-07-02T08:35:00;21.50;99.90
20319;DHT22;10317;47.254;11.314;2023-07-02T08:37:25;21.30;99.90
20319;DHT22;10317;47.254;11.314;2023-07-02T08:39:51;21.50;99.90
20319;DHT22;10317;47.254;11.314;2023-07-02T08:42:16;22.00;99.90
20319;DHT22;10317;47.254;11.314;2023-07-02T08:44:45;22.20;99.90
20319;DHT22;10317;47.254;11.314;2023-07-02T08:47:14;23.40;99.90
20319;DHT22;10317;47.254;11.314;2023-07-02T08:49:41;23.70;99.90
20319;DHT22;10317;47.254;11.314;2023-07-02T08:52:07;24.20;99.50
20319;DHT22;10317;47.254;11.314;2023-07-02T08:54:33;24.70;98.30
20319;DHT22;10317;47.254;11.314;2023-07-02T08:57:04;24.70;96.50
20319;DHT22;10317;47.254;11.314;2023-07-02T08:59:30;24.60;96.50
20319;DHT22;10317;47.254;11.314;2023-07-02T09:01:56;24.60;97.10
20319;DHT22;10317;47.254;11.314;2023-07-02T09:04:22;24.40;96.10
20319;DHT22;10317;47.254;11.314;2023-07-02T09:07:12;24.20;96.10
20319;DHT22;10317;47.254;11.314;2023-07-02T09:09:49;24.40;95.00
20319;DHT22;10317;47.254;11.314;2023-07-02T09:12:28;24.50;93.60
20319;DHT22;10317;47.254;11.314;2023-07-02T09:14:55;24.90;94.10
20319;DHT22;10317;47.254;11.314;2023-07-02T09:17:21;24.70;94.80
20319;DHT22;10317;47.254;11.314;2023-07-02T09:19:50;25.10;95.20
20319;DHT22;10317;47.254;11.314;2023-07-02T09:22:16;25.50;94.90
20319;DHT22;10317;47.254;11.314;2023-07-02T09:24:42;25.30;91.90
20319;DHT22;10317;47.254;11.314;2023-07-02T09:27:15;25.30;91.30
20319;DHT22;10317;47.254;11.314;2023-07-02T09:29:49;25.10;92.00
20319;DHT22;10317;47.254;11.314;2023-07-02T09:32:23;25.30;92.40
20319;DHT22;10317;47.254;11.314;2023-07-02T09:34:48;24.80;92.70
20319;DHT22;10317;47.254;11.314;2023-07-02T09:37:14;24.60;93.00
20319;DHT22;10317;47.254;11.314;2023-07-02T09:39:40;24.70;93.30
20319;DHT22;10317;47.254;11.314;2023-07-02T09:42:06;24.60;92.30
20319;DHT22;10317;47.254;11.314;2023-07-02T09:44:32;24.50;92.00
20319;DHT22;10317;47.254;11.314;2023-07-02T09:47:07;24.40;91.00
20319;DHT22;10317;47.254;11.314;2023-07-02T09:49:39;24.60;91.70
20319;DHT22;10317;47.254;11.314;2023-07-02T09:52:11;24.50;90.60
20319;DHT22;10317;47.254;11.314;2023-07-02T09:54:37;24.50;91.70
20319;DHT22;10317;47.254;11.314;2023-07-02T09:57:03;24.50;92.20
20319;DHT22;10317;47.254;11.314;2023-07-02T09:59:29;24.50;91.10
20319;DHT22;10317;47.254;11.314;2023-07-02T10:01:55;24.70;93.40
20319;DHT22;10317;47.254;11.314;2023-07-02T10:04:22;24.80;90.60
20319;DHT22;10317;47.254;11.314;2023-07-02T10:06:51;24.80;93.10
20319;DHT22;10317;47.254;11.314;2023-07-02T10:09:18;24.90;91.60
20319;DHT22;10317;47.254;11.314;2023-07-02T10:11:43;24.80;91.30
20319;DHT22;10317;47.254;11.314;2023-07-02T10:14:09;24.90;91.10
20319;DHT22;10317;47.254;11.314;2023-07-02T10:16:47;24.70;90.40
20319;DHT22;10317;47.254;11.314;2023-07-02T10:19:13;24.70;92.70
20319;DHT22;10317;47.254;11.314;2023-07-02T10:21:39;24.50;90.50
20319;DHT22;10317;47.254;11.314;2023-07-02T10:24:11;24.50;91.30
20319;DHT22;10317;47.254;11.314;2023-07-02T10:26:37;24.20;90.70
20319;DHT22;10317;47.254;11.314;2023-07-02T10:29:02;24.20;91.60
20319;DHT22;10317;47.254;11.314;2023-07-02T10:31:28;24.30;91.80
20319;DHT22;10317;47.254;11.314;2023-07-02T10:33:54;24.20;91.40
20319;DHT22;10317;47.254;11.314;2023-07-02T10:36:21;24.10;92.00
20319;DHT22;10317;47.254;11.314;2023-07-02T10:38:47;24.20;93.10
20319;DHT22;10317;47.254;11.314;2023-07-02T10:41:22;24.40;92.40
20319;DHT22;10317;47.254;11.314;2023-07-02T10:43:48;24.30;91.40
20319;DHT22;10317;47.254;11.314;2023-07-02T10:46:20;24.10;91.50
20319;DHT22;10317;47.254;11.314;2023-07-02T10:48:56;24.00;91.00
20319;DHT22;10317;47.254;11.314;2023-07-02T10:51:21;24.00;90.90
20319;DHT22;10317;47.254;11.314;2023-07-02T10:53:57;24.20;90.20
20319;DHT22;10317;47.254;11.314;2023-07-02T10:56:24;24.40;89.70
20319;DHT22;10317;47.254;11.314;2023-07-02T10:58:49;24.90;88.50
20319;DHT22;10317;47.254;11.314;2023-07-02T11:01:27;25.30;88.20
20319;DHT22;10317;47.254;11.314;2023-07-02T11:03:59;25.40;87.30
20319;DHT22;10317;47.254;11.314;2023-07-02T11:06:29;25.40;86.10
20319;DHT22;10317;47.254;11.314;2023-07-02T11:08:55;25.40;85.60
20319;DHT22;10317;47.254;11.314;2023-07-02T11:11:21;25.70;84.60
20319;DHT22;10317;47.254;11.314;2023-07-02T11:13:48;26.00;83.90
20319;DHT22;10317;47.254;11.314;2023-07-02T11:16:24;25.70;81.50
20319;DHT22;10317;47.254;11.314;2023-07-02T11:18:54;25.20;83.10
20319;DHT22;10317;47.254;11.314;2023-07-02T11:21:20;24.80;84.20
20319;DHT22;10317;47.254;11.314;2023-07-02T11:23:46;24.70;83.80
20319;DHT22;10317;47.254;11.314;2023-07-02T11:26:11;24.80;84.90
20319;DHT22;10317;47.254;11.314;2023-07-02T11:28:48;24.90;84.60
20319;DHT22;10317;47.254;11.314;2023-07-02T11:31:14;25.30;85.30
20319;DHT22;10317;47.254;11.314;2023-07-02T11:33:49;25.40;83.20
20319;DHT22;10317;47.254;11.314;2023-07-02T11:36:19;25.40;83.80
20319;DHT22;10317;47.254;11.314;2023-07-02T11:38:45;25.60;84.50
20319;DHT22;10317;47.254;11.314;2023-07-02T11:41:11;25.60;84.10
20319;DHT22;10317;47.254;11.314;2023-07-02T11:43:37;25.60;83.80
20319;DHT22;10317;47.254;11.314;2023-07-02T11:46:03;25.40;83.50
20319;DHT22;10317;47.254;11.314;2023-07-02T11:48:29;25.50;83.60
20319;DHT22;10317;47.254;11.314;2023-07-02T11:50:55;25.30;83.20
20319;DHT22;10317;47.254;11.314;2023-07-02T11:53:20;25.20;84.00
20319;DHT22;10317;47.254;11.314;2023-07-02T11:55:46;25.20;88.10
20319;DHT22;10317;47.254;11.314;2023-07-02T11:58:11;25.30;85.30
20319;DHT22;10317;47.254;11.314;2023-07-02T12:00:37;25.40;88.00
20319;DHT22;10317;47.254;11.314;2023-07-02T12:03:02;25.30;88.40
20319;DHT22;10317;47.254;11.314;2023-07-02T12:05:28;25.00;86.00
20319;DHT22;10317;47.254;11.314;2023-07-02T12:07:53;24.80;85.30
20319;DHT22;10317;47.254;11.314;2023-07-02T12:10:19;24.70;88.70
20319;DHT22;10317;47.254;11.314;2023-07-02T12:12:44;24.40;88.40
20319;DHT22;10317;47.254;11.314;2023-07-02T12:15:10;24.50;90.50
20319;DHT22;10317;47.254;11.314;2023-07-02T12:17:36;24.40;90.30
20319;DHT22;10317;47.254;11.314;2023-07-02T12:20:01;24.60;90.60
20319;DHT22;10317;47.254;11.314;2023-07-02T12:22:27;24.50;90.70
20319;DHT22;10317;47.254;11.314;2023-07-02T12:24:52;24.60;91.20
20319;DHT22;10317;47.254;11.314;2023-07-02T12:27:21;24.60;90.20
20319;DHT22;10317;47.254;11.314;2023-07-02T12:29:46;24.50;89.60
20319;DHT22;10317;47.254;11.314;2023-07-02T12:32:14;24.40;90.40
20319;DHT22;10317;47.254;11.314;2023-07-02T12:34:39;24.40;90.50
20319;DHT22;10317;47.254;11.314;2023-07-02T12:37:05;24.30;90.00
20319;DHT22;10317;47.254;11.314;2023-07-02T12:39:30;24.30;90.10
20319;DHT22;10317;47.254;11.314;2023-07-02T12:41:56;24.30;90.10
20319;DHT22;10317;47.254;11.314;2023-07-02T12:44:22;24.50;90.40
20319;DHT22;10317;47.254;11.314;2023-07-02T12:46:47;24.60;90.40
20319;DHT22;10317;47.254;11.314;2023-07-02T12:49:13;24.60;90.20
20319;DHT22;10317;47.254;11.314;2023-07-02T12:51:40;24.40;90.00
20319;DHT22;10317;47.254;11.314;2023-07-02T12:54:06;24.30;89.70
20319;DHT22;10317;47.254;11.314;2023-07-02T12:56:32;24.20;90.40
20319;DHT22;10317;47.254;11.314;2023-07-02T12:58:57;24.10;91.30
20319;DHT22;10317;47.254;11.314;2023-07-02T13:01:23;24.10;91.70
20319;DHT22;10317;47.254;11.314;2023-07-02T13:03:49;24.00;91.30
20319;DHT22;10317;47.254;11.314;2023-07-02T13:06:15;24.00;90.60
20319;DHT22;10317;47.254;11.314;2023-07-02T13:08:41;24.00;91.20
20319;DHT22;10317;47.254;11.314;2023-07-02T13:11:07;24.10;91.40
20319;DHT22;10317;47.254;11.314;2023-07-02T13:13:32;24.30;91.30
20319;DHT22;10317;47.254;11.314;2023-07-02T13:15:58;24.60;90.10
20319;DHT22;10317;47.254;11.314;2023-07-02T13:18:24;24.90;90.80
20319;DHT22;10317;47.254;11.314;2023-07-02T13:20:50;24.80;88.00
20319;DHT22;10317;47.254;11.314;2023-07-02T13:23:15;24.90;88.00
20319;DHT22;10317;47.254;11.314;2023-07-02T13:25:41;24.80;86.40
20319;DHT22;10317;47.254;11.314;2023-07-02T13:28:06;24.80;86.40
20319;DHT22;10317;47.254;11.314;2023-07-02T13:30:32;25.00;87.00
20319;DHT22;10317;47.254;11.314;2023-07-02T13:32:58;25.00;88.40
20319;DHT22;10317;47.254;11.314;2023-07-02T13:35:23;25.00;86.20
20319;DHT22;10317;47.254;11.314;2023-07-02T13:37:49;24.90;86.30
20319;DHT22;10317;47.254;11.314;2023-07-02T13:40:15;24.90;84.80
20319;DHT22;10317;47.254;11.314;2023-07-02T13:42:41;24.90;88.00
20319;DHT22;10317;47.254;11.314;2023-07-02T13:45:08;24.80;85.70
20319;DHT22;10317;47.254;11.314;2023-07-02T13:47:35;24.70;83.90
20319;DHT22;10317;47.254;11.314;2023-07-02T13:50:01;24.70;84.40
20319;DHT22;10317;47.254;11.314;2023-07-02T13:52:26;24.90;85.00
20319;DHT22;10317;47.254;11.314;2023-07-02T13:54:52;25.20;84.20
20319;DHT22;10317;47.254;11.314;2023-07-02T13:57:17;25.70;82.90
20319;DHT22;10317;47.254;11.314;2023-07-02T13:59:43;26.20;80.40
20319;DHT22;10317;47.254;11.314;2023-07-02T14:02:08;26.00;77.60
20319;DHT22;10317;47.254;11.314;2023-07-02T14:04:34;25.80;80.10
20319;DHT22;10317;47.254;11.314;2023-07-02T14:06:59;25.70;78.80
20319;DHT22;10317;47.254;11.314;2023-07-02T14:09:25;25.40;80.50
20319;DHT22;10317;47.254;11.314;2023-07-02T14:11:50;25.20;84.40
20319;DHT22;10317;47.254;11.314;2023-07-02T14:14:16;25.00;83.70
20319;DHT22;10317;47.254;11.314;2023-07-02T14:16:42;24.80;83.80
20319;DHT22;10317;47.254;11.314;2023-07-02T14:19:07;24.70;87.00
20319;DHT22;10317;47.254;11.314;2023-07-02T14:21:33;24.80;86.60
20319;DHT22;10317;47.254;11.314;2023-07-02T14:23:58;25.00;87.00
20319;DHT22;10317;47.254;11.314;2023-07-02T14:26:24;25.00;83.70
20319;DHT22;10317;47.254;11.314;2023-07-02T14:28:50;25.10;85.60
20319;DHT22;10317;47.254;11.314;2023-07-02T14:31:15;25.20;82.30
20319;DHT22;10317;47.254;11.314;2023-07-02T14:33:41;25.20;80.10
20319;DHT22;10317;47.254;11.314;2023-07-02T14:36:06;25.10;80.10
20319;DHT22;10317;47.254;11.314;2023-07-02T14:38:32;24.90;80.30
20319;DHT22;10317;47.254;11.314;2023-07-02T14:40:58;24.90;80.10
20319;DHT22;10317;47.254;11.314;2023-07-02T14:43:25;24.90;80.90
20319;DHT22;10317;47.254;11.314;2023-07-02T14:45:53;24.90;80.30
20319;DHT22;10317;47.254;11.314;2023-07-02T14:48:19;24.90;81.10
20319;DHT22;10317;47.254;11.314;2023-07-02T14:50:49;24.90;82.70
20319;DHT22;10317;47.254;11.314;2023-07-02T14:53:16;24.80;85.10
20319;DHT22;10317;47.254;11.314;2023-07-02T14:55:41;24.70;84.10
20319;DHT22;10317;47.254;11.314;2023-07-02T14:58:07;24.60;83.20
20319;DHT22;10317;47.254;11.314;2023-07-02T15:00:32;24.70;84.20
20319;DHT22;10317;47.254;11.314;2023-07-02T15:02:58;24.60;83.00
20319;DHT22;10317;47.254;11.314;2023-07-02T15:05:24;24.60;84.70
20319;DHT22;10317;47.254;11.314;2023-07-02T15:07:49;24.60;81.70
20319;DHT22;10317;47.254;11.314;2023-07-02T15:10:17;24.50;81.90